Time;durP1;ratioP1;P1;durP2;ratioP2;P2;SDS_P1;SDS_P2;PMS_P1;PMS_P2;Temp;Humidity;BMP_temperature;BMP_pressure;BME280_temperature;BME280_humidity;BME280_pressure;Samples;Min_cycle;Max_cycle;Signal;HPM_P1;HPM_P2
2022/08/09 00:00:00;;;;;;;;;9.33;9.33;;;;;22.41;47.94;101614.94;4896192;29;45373;-89
2022/08/09 00:02:26;;;;;;;;;10.67;9.00;;;;;22.43;47.55;101622.09;4896657;29;45463;-89
2022/08/09 00:04:52;;;;;;;;;8.00;8.00;;;;;22.39;48.70;101617.66;4897360;29;46868;-89
2022/08/09 00:07:18;;;;;;;;;10.00;10.00;;;;;22.30;49.08;101609.72;4896727;29;45494;-89
2022/08/09 00:09:43;;;;;;;;;10.00;10.00;;;;;22.06;47.82;101576.78;4895580;29;45341;-90
2022/08/09 00:12:09;;;;;;;;;7.00;6.33;;;;;22.21;50.50;101593.63;4895861;29;45810;-90
2022/08/09 00:14:37;;;;;;;;;9.00;9.00;;;;;22.17;48.25;101596.38;4912277;29;46252;-89
2022/08/09 00:17:27;;;;;;;;;9.00;9.00;;;;;22.28;48.41;101614.28;4895705;29;45343;-89
2022/08/09 00:19:53;;;;;;;;;8.00;8.00;;;;;22.20;49.67;101595.47;4896315;29;45563;-89
2022/08/09 00:22:18;;;;;;;;;8.00;8.00;;;;;22.23;48.47;101599.91;4911231;29;45516;-89
2022/08/09 00:24:44;;;;;;;;;7.00;7.00;;;;;22.22;49.18;101606.25;4911604;29;46903;-90
2022/08/09 00:27:09;;;;;;;;;9.00;9.00;;;;;22.17;49.06;101599.09;4911289;29;45375;-89
2022/08/09 00:29:34;;;;;;;;;9.00;9.00;;;;;22.15;50.61;101600.06;4895705;29;45534;-89
2022/08/09 00:32:00;;;;;;;;;8.67;8.67;;;;;22.12;49.82;101603.75;4895996;28;45465;-89
2022/08/09 00:34:25;;;;;;;;;9.00;9.00;;;;;22.08;49.29;101590.28;4893751;29;46935;-88
2022/08/09 00:36:51;;;;;;;;;7.67;7.67;;;;;21.89;49.46;101568.06;4910342;29;45264;-90
2022/08/09 00:39:16;;;;;;;;;7.67;7.67;;;;;22.03;49.95;101601.19;4893720;29;45761;-89
2022/08/09 00:41:42;;;;;;;;;8.33;8.33;;;;;22.01;50.46;101592.22;4895817;29;45277;-89
2022/08/09 00:44:08;;;;;;;;;10.00;8.33;;;;;21.88;51.89;101580.72;4912370;29;46000;-89
2022/08/09 00:46:34;;;;;;;;;7.67;7.67;;;;;21.68;52.23;101550.44;4893530;29;45341;-90
2022/08/09 00:48:59;;;;;;;;;8.00;8.00;;;;;21.81;50.04;101576.34;4894926;29;45233;-90
2022/08/09 00:51:25;;;;;;;;;7.33;7.33;;;;;21.83;51.20;101587.16;4894640;29;45149;-90
2022/08/09 00:53:51;;;;;;;;;9.00;9.00;;;;;21.82;50.57;101602.53;4894442;29;46176;-89
2022/08/09 00:56:18;;;;;;;;;5.33;5.33;;;;;21.79;50.63;101589.03;4895219;29;45338;-89
2022/08/09 00:58:43;;;;;;;;;5.00;5.00;;;;;21.78;49.76;101598.97;4913160;29;45362;-90
2022/08/09 01:01:20;;;;;;;;;8.33;8.33;;;;;21.52;50.98;101552.53;4895284;29;45495;-89
2022/08/09 01:04:12;;;;;;;;;7.00;7.00;;;;;21.74;52.22;101602.66;4911311;29;46359;-89
2022/08/09 01:07:11;;;;;;;;;7.00;7.00;;;;;21.67;51.24;101589.25;4894766;29;45978;-88
2022/08/09 01:09:52;;;;;;;;;8.00;8.00;;;;;21.69;51.66;101599.16;4894434;29;45451;-90
2022/08/09 01:12:24;;;;;;;;;3.67;3.67;;;;;21.66;51.19;101607.31;4893036;29;45446;-89
2022/08/09 01:15:17;;;;;;;;;6.00;6.00;;;;;21.64;53.01;101595.63;4893783;29;47110;-89
2022/08/09 01:17:49;;;;;;;;;7.00;7.00;;;;;21.57;52.08;101604.75;4894838;29;45707;-89
2022/08/09 01:20:43;;;;;;;;;8.00;6.00;;;;;21.53;52.85;101594.91;4912691;29;45431;-89
2022/08/09 01:23:17;;;;;;;;;6.33;6.33;;;;;21.49;52.32;101599.50;4910847;29;44845;-89
2022/08/09 01:26:17;;;;;;;;;7.00;7.00;;;;;21.48;51.59;101594.13;4893537;29;47527;-90
2022/08/09 01:28:47;;;;;;;;;8.33;7.33;;;;;21.41;53.57;101584.28;4894849;29;45261;-90
2022/08/09 01:31:19;;;;;;;;;10.00;8.00;;;;;21.40;54.35;101591.50;4894799;29;45492;-89
2022/08/09 01:33:49;;;;;;;;;6.00;5.67;;;;;21.40;53.83;101602.34;4895245;29;44844;-90
2022/08/09 01:36:20;;;;;;;;;8.67;7.00;;;;;21.18;54.63;101559.41;4895051;29;48418;-90
2022/08/09 01:38:48;;;;;;;;;6.67;6.00;;;;;21.15;56.26;101569.41;4894646;29;45437;-89
2022/08/09 01:41:25;;;;;;;;;7.67;7.67;;;;;21.26;57.13;101598.97;4894788;29;45513;-89
2022/08/09 01:43:54;;;;;;;;;7.00;7.00;;;;;21.16;54.39;101573.88;4894705;29;45516;-89
2022/08/09 01:46:33;;;;;;;;;9.33;6.00;;;;;21.22;55.25;101594.53;4893786;29;47030;-88
2022/08/09 01:49:04;;;;;;;;;8.00;8.00;;;;;21.17;55.23;101594.63;4908854;29;45376;-89
2022/08/09 01:51:32;;;;;;;;;6.00;6.00;;;;;20.99;54.49;101568.75;4911101;29;45347;-89
2022/08/09 01:54:01;;;;;;;;;8.00;8.00;;;;;21.03;54.85;101575.00;4895127;29;45444;-89
2022/08/09 01:56:29;;;;;;;;;6.00;6.00;;;;;21.06;54.81;101580.34;4894887;29;45353;-90
2022/08/09 01:58:58;;;;;;;;;6.33;6.33;;;;;20.93;54.99;101567.03;4912265;29;45372;-88
2022/08/09 02:01:25;;;;;;;;;5.00;5.00;;;;;21.04;55.78;101590.31;4894359;29;45367;-89
2022/08/09 02:03:54;;;;;;;;;8.67;8.67;;;;;21.03;55.39;101588.53;4912065;28;44840;-90
2022/08/09 02:07:07;;;;;;;;;6.00;6.00;;;;;20.94;55.84;101576.91;4893692;29;47310;-89
2022/08/09 02:09:09;;;;;;;;;6.00;6.00;;;;;20.98;56.35;101594.00;4910519;29;45249;-89
2022/08/09 02:11:35;;;;;;;;;7.00;7.00;;;;;20.96;55.39;101595.81;4893847;29;45471;-90
2022/08/09 02:14:04;;;;;;;;;6.33;6.33;;;;;20.83;56.59;101586.13;4910657;29;45593;-90
2022/08/09 02:16:34;;;;;;;;;7.00;6.33;;;;;20.90;56.21;101582.41;4911104;29;45352;-90
2022/08/09 02:19:00;;;;;;;;;7.00;7.00;;;;;20.64;56.29;101540.44;4892572;29;45449;-90
2022/08/09 02:21:31;;;;;;;;;7.33;7.33;;;;;20.61;57.25;101551.31;4893595;29;45227;-90
2022/08/09 02:23:59;;;;;;;;;6.00;6.00;;;;;20.83;56.99;101586.13;4893389;29;45505;-89
2022/08/09 02:26:33;;;;;;;;;9.00;9.00;;;;;20.81;55.87;101586.16;4909626;29;45379;-89
2022/08/09 02:29:04;;;;;;;;;8.00;7.00;;;;;20.69;57.25;101571.00;4893422;29;45426;-90
2022/08/09 02:31:34;;;;;;;;;6.00;6.00;;;;;20.75;56.54;101591.66;4893850;29;44822;-88
2022/08/09 02:34:07;;;;;;;;;6.00;6.00;;;;;20.68;56.63;101571.00;4895829;29;45491;-90
2022/08/09 02:36:45;;;;;;;;;8.00;8.00;;;;;20.43;57.87;101525.41;4898259;29;47864;-90
2022/08/09 02:39:17;;;;;;;;;5.33;5.33;;;;;20.44;57.34;101529.91;4898115;29;45515;-89
2022/08/09 02:41:46;;;;;;;;;8.33;8.33;;;;;20.71;58.68;101579.97;4914240;29;45051;-92
2022/08/09 02:44:24;;;;;;;;;9.00;8.00;;;;;20.68;58.21;101590.84;4897084;29;44858;-90
2022/08/09 02:46:54;;;;;;;;;6.33;6.33;;;;;20.60;57.49;101570.22;4895805;29;46670;-90
2022/08/09 02:49:27;;;;;;;;;7.00;7.00;;;;;20.31;58.28;101529.16;4898482;29;44910;-89
2022/08/09 02:51:58;;;;;;;;;9.00;9.00;;;;;20.34;59.68;101537.25;4898085;29;45242;-89
2022/08/09 02:54:25;;;;;;;;;9.33;7.00;;;;;20.58;57.76;101572.91;4898451;29;45510;-90
2022/08/09 02:56:54;;;;;;;;;7.33;7.33;;;;;20.34;58.69;101541.72;4914223;29;45451;-89
2022/08/09 02:59:22;;;;;;;;;7.00;7.00;;;;;20.43;58.52;101562.34;4898331;29;45486;-89
2022/08/09 03:01:49;;;;;;;;;8.33;8.00;;;;;20.25;59.37;101539.16;4914437;29;44878;-90
2022/08/09 03:04:19;;;;;;;;;7.00;7.00;;;;;20.37;60.72;101566.00;4896704;29;45176;-90
2022/08/09 03:06:46;;;;;;;;;9.33;6.67;;;;;20.37;59.48;101563.31;4897173;29;47156;-90
2022/08/09 03:09:13;;;;;;;;;8.00;8.00;;;;;20.33;60.58;101562.44;4897359;29;44840;-90
2022/08/09 03:11:47;;;;;;;;;8.67;8.67;;;;;20.41;58.68;101575.88;4898610;29;44748;-89
2022/08/09 03:14:15;;;;;;;;;5.67;5.67;;;;;20.29;59.73;101559.81;4898148;29;45726;-89
2022/08/09 03:16:41;;;;;;;;;7.33;6.67;;;;;20.09;59.95;101533.94;4896105;29;47899;-89
2022/08/09 03:19:10;;;;;;;;;9.67;9.67;;;;;20.17;59.72;101566.25;4895938;29;44806;-89
2022/08/09 03:21:37;;;;;;;;;10.00;8.00;;;;;20.12;61.58;101555.53;4913235;29;45488;-90
2022/08/09 03:24:03;;;;;;;;;7.67;7.67;;;;;20.02;60.36;101534.03;4896587;29;44822;-90
2022/08/09 03:26:30;;;;;;;;;8.00;8.00;;;;;20.06;60.61;101547.50;4913182;29;45402;-90
2022/08/09 03:28:58;;;;;;;;;7.00;7.00;;;;;20.00;60.73;101536.78;4896923;29;45451;-89
2022/08/09 03:31:25;;;;;;;;;9.00;9.00;;;;;20.13;60.55;101564.53;4896847;29;45538;-90
2022/08/09 03:33:52;;;;;;;;;7.00;7.00;;;;;20.08;63.35;101561.88;4897913;29;44903;-90
2022/08/09 03:36:18;;;;;;;;;7.67;7.67;;;;;19.95;61.68;101552.13;4898190;29;45394;-90
2022/08/09 03:38:46;;;;;;;;;9.00;9.00;;;;;20.10;60.92;101575.38;4915458;29;45275;-90
2022/08/09 03:41:14;;;;;;;;;8.33;8.00;;;;;20.11;62.17;101574.44;4913419;28;44881;-90
2022/08/09 03:43:39;;;;;;;;;4.33;4.33;;;;;20.08;62.20;101578.09;4898068;29;44855;-90
2022/08/09 03:46:06;;;;;;;;;8.33;8.33;;;;;19.99;62.61;101564.69;4895146;29;46824;-90
2022/08/09 03:48:34;;;;;;;;;7.00;6.67;;;;;20.02;62.15;101575.47;4914443;28;45276;-90
2022/08/09 03:51:05;;;;;;;;;9.67;9.67;;;;;20.06;61.53;101577.22;4912428;29;45435;-90
2022/08/09 03:53:33;;;;;;;;;6.67;6.33;;;;;20.04;61.11;101576.34;4896060;29;45526;-90
2022/08/09 03:55:59;;;;;;;;;8.33;7.00;;;;;20.05;62.38;101580.81;4895206;29;45179;-90
2022/08/09 03:58:24;;;;;;;;;7.00;7.00;;;;;20.04;63.48;101581.75;4896107;29;45336;-90
2022/08/09 04:00:50;;;;;;;;;9.00;9.00;;;;;20.02;61.84;101586.25;4911132;29;44741;-89
2022/08/09 04:03:16;;;;;;;;;7.33;7.00;;;;;20.01;64.55;101581.75;4911909;29;44998;-89
2022/08/09 04:05:45;;;;;;;;;4.33;4.33;;;;;19.98;61.89;101581.81;4896699;29;46109;-89
2022/08/09 04:08:10;;;;;;;;;7.00;7.00;;;;;19.76;62.91;101546.94;4896651;29;45834;-88
2022/08/09 04:10:36;;;;;;;;;11.00;9.67;;;;;19.69;63.93;101542.50;4911760;29;45443;-89
2022/08/09 04:13:08;;;;;;;;;8.33;8.33;;;;;19.90;63.15;101579.19;4910869;29;45312;-90
2022/08/09 04:15:35;;;;;;;;;6.33;6.33;;;;;19.88;63.63;101590.94;4894971;29;47257;-90
2022/08/09 04:18:05;;;;;;;;;7.00;7.00;;;;;19.85;65.77;101590.94;4911553;29;45430;-89
2022/08/09 04:20:31;;;;;;;;;7.00;7.00;;;;;19.83;64.01;101595.47;4895191;29;45335;-89
2022/08/09 04:22:59;;;;;;;;;8.67;8.67;;;;;19.65;64.38;101566.81;4912186;29;44746;-90
2022/08/09 04:25:25;;;;;;;;;8.67;8.67;;;;;19.74;63.52;101582.97;4895633;29;46918;-89
2022/08/09 04:27:52;;;;;;;;;9.00;7.33;;;;;19.70;63.52;101579.38;4913119;29;45415;-90
2022/08/09 04:30:22;;;;;;;;;7.67;7.67;;;;;19.68;65.85;101586.59;4896173;29;45404;-89
2022/08/09 04:32:48;;;;;;;;;6.33;5.67;;;;;19.52;63.64;101557.97;4895783;29;45565;-90
2022/08/09 04:35:14;;;;;;;;;7.67;7.67;;;;;19.69;64.30;101580.28;4894293;29;47011;-90
2022/08/09 04:37:42;;;;;;;;;7.67;7.67;;;;;19.58;64.50;101566.88;4912154;29;45358;-90
2022/08/09 04:40:09;;;;;;;;;9.33;8.00;;;;;19.72;67.04;101595.59;4912334;29;45360;-90
2022/08/09 04:42:34;;;;;;;;;6.00;6.00;;;;;19.71;64.30;101602.78;4896515;29;44894;-89
2022/08/09 04:45:00;;;;;;;;;8.00;8.00;;;;;19.74;64.46;101605.44;4912021;29;47734;-90
2022/08/09 04:47:28;;;;;;;;;8.00;8.00;;;;;19.61;64.14;101576.75;4896286;29;45349;-89
2022/08/09 04:49:56;;;;;;;;;8.33;8.33;;;;;19.75;66.53;101612.66;4895377;29;45385;-90
2022/08/09 04:52:24;;;;;;;;;9.00;9.00;;;;;19.66;65.12;101595.63;4911138;29;45486;-89
2022/08/09 04:54:50;;;;;;;;;10.00;8.33;;;;;19.52;64.53;101571.47;4894777;29;47379;-89
2022/08/09 04:57:16;;;;;;;;;8.00;8.00;;;;;19.41;64.80;101562.56;4894791;29;44776;-89
2022/08/09 04:59:43;;;;;;;;;10.67;9.00;;;;;19.48;64.71;101567.88;4896278;29;44813;-89
2022/08/09 05:02:09;;;;;;;;;9.67;8.33;;;;;19.66;64.43;101604.59;4895286;29;45448;-89
2022/08/09 05:04:34;;;;;;;;;7.00;7.00;;;;;19.70;64.57;101603.66;4911582;28;45437;-89
2022/08/09 05:07:03;;;;;;;;;9.00;9.00;;;;;19.65;64.31;101583.91;4894420;29;45338;-90
2022/08/09 05:09:29;;;;;;;;;8.67;8.00;;;;;19.76;64.09;101592.84;4912736;29;45331;-89
2022/08/09 05:11:56;;;;;;;;;6.00;6.00;;;;;19.87;63.72;101611.59;4896377;29;45378;-90
2022/08/09 05:14:22;;;;;;;;;8.67;8.33;;;;;19.83;65.48;101592.75;4895950;29;45273;-90
2022/08/09 05:16:50;;;;;;;;;8.00;8.00;;;;;19.93;64.60;101616.06;4913493;29;45531;-89
2022/08/09 05:19:20;;;;;;;;;8.33;8.33;;;;;19.86;63.58;101587.34;4912560;29;45321;-90
2022/08/09 05:21:47;;;;;;;;;7.00;7.00;;;;;19.96;63.74;101599.84;4912855;29;44848;-90
2022/08/09 05:24:14;;;;;;;;;9.00;9.00;;;;;20.05;63.48;101609.63;4895222;29;45423;-90
2022/08/09 05:26:39;;;;;;;;;8.33;6.67;;;;;20.01;63.14;101587.16;4896019;29;45448;-89
2022/08/09 05:29:05;;;;;;;;;7.67;7.67;;;;;20.11;63.45;101604.16;4896257;29;45327;-90
2022/08/09 05:31:31;;;;;;;;;9.33;7.00;;;;;20.05;62.55;101580.81;4896583;29;45565;-90
2022/08/09 05:33:56;;;;;;;;;10.00;10.00;;;;;20.21;62.71;101602.25;4895660;29;47955;-90
2022/08/09 05:36:22;;;;;;;;;9.33;9.33;;;;;20.22;63.54;101596.81;4895968;29;45379;-90
2022/08/09 05:38:56;;;;;;;;;7.00;7.00;;;;;20.34;62.48;101610.19;4897217;29;44774;-89
2022/08/09 05:41:21;;;;;;;;;9.00;9.00;;;;;20.47;61.32;101619.00;4896754;29;45473;-90
2022/08/09 05:43:47;;;;;;;;;7.67;7.67;;;;;20.56;61.71;101627.00;4894645;29;47012;-90
2022/08/09 05:46:14;;;;;;;;;9.00;9.00;;;;;20.39;62.53;101604.72;4896048;29;45400;-90
2022/08/09 05:48:44;;;;;;;;;8.00;8.00;;;;;20.58;60.93;101626.97;4911474;29;45379;-90
2022/08/09 05:51:15;;;;;;;;;8.67;8.67;;;;;20.53;60.38;101602.72;4894345;28;45442;-90
2022/08/09 05:53:44;;;;;;;;;7.00;7.00;;;;;20.76;60.38;101634.88;4894920;29;46541;-88
2022/08/09 05:56:15;;;;;;;;;9.00;8.00;;;;;20.86;60.19;101632.91;4894141;29;45532;-90
2022/08/09 05:58:48;;;;;;;;;10.00;9.00;;;;;20.98;59.57;101635.44;4894174;29;45307;-90
2022/08/09 06:01:16;;;;;;;;;10.00;8.33;;;;;21.05;59.40;101627.28;4894562;29;45250;-90
2022/08/09 06:03:45;;;;;;;;;7.00;7.00;;;;;20.87;59.52;101590.56;4893871;29;46849;-90
2022/08/09 06:06:15;;;;;;;;;8.00;8.00;;;;;20.91;58.68;101598.63;4893606;29;44849;-90
2022/08/09 06:08:48;;;;;;;;;7.00;7.00;;;;;21.06;58.95;101629.94;4896309;29;45396;-90
2022/08/09 06:11:14;;;;;;;;;10.00;8.67;;;;;20.95;59.39;101602.16;4898378;29;45372;-90
2022/08/09 06:13:43;;;;;;;;;7.67;7.67;;;;;21.14;58.44;101633.41;4899124;29;45190;-90
2022/08/09 06:16:14;;;;;;;;;8.00;8.00;;;;;21.25;58.48;101633.25;4899427;29;45440;-91
2022/08/09 06:18:39;;;;;;;;;8.00;8.00;;;;;21.40;58.48;101644.75;4898689;29;45438;-90
2022/08/09 06:21:10;;;;;;;;;6.67;6.67;;;;;21.37;57.43;101619.53;4898929;29;45263;-91
2022/08/09 06:23:36;;;;;;;;;12.00;10.00;;;;;21.44;57.01;101624.88;4898826;29;47889;-90
2022/08/09 06:26:04;;;;;;;;;11.00;10.00;;;;;21.47;57.12;101628.41;4898457;29;45450;-91
2022/08/09 06:28:31;;;;;;;;;7.67;7.00;;;;;21.40;56.33;101610.44;4898978;29;44905;-90
2022/08/09 06:30:58;;;;;;;;;9.67;9.67;;;;;21.37;56.42;101592.47;4898953;29;45408;-89
2022/08/09 06:33:26;;;;;;;;;8.00;8.00;;;;;21.75;56.54;101653.19;4898594;29;45823;-90
2022/08/09 06:35:51;;;;;;;;;12.67;9.67;;;;;21.78;56.71;101674.78;4898478;29;45324;-90
2022/08/09 06:38:17;;;;;;;;;10.00;9.67;;;;;21.66;56.14;101622.69;4899345;29;45375;-91
2022/08/09 06:40:46;;;;;;;;;7.00;7.00;;;;;21.86;55.56;101638.56;4899209;29;45374;-91
2022/08/09 06:43:12;;;;;;;;;8.00;8.00;;;;;22.01;55.23;101645.50;4900638;29;46754;-91
2022/08/09 06:45:47;;;;;;;;;10.33;10.33;;;;;21.98;54.64;101628.38;4914857;28;44761;-90
2022/08/09 06:48:12;;;;;;;;;7.33;7.33;;;;;22.23;54.35;101656.81;4913213;29;45346;-90
2022/08/09 06:50:38;;;;;;;;;9.00;9.00;;;;;22.25;54.32;101650.47;4898567;29;45219;-91
2022/08/09 06:53:04;;;;;;;;;9.33;9.33;;;;;22.17;53.99;101642.44;4913337;28;47253;-90
2022/08/09 06:55:33;;;;;;;;;12.00;12.00;;;;;21.96;53.75;101610.38;4897634;28;45312;-90
2022/08/09 06:58:02;;;;;;;;;13.00;10.33;;;;;22.24;54.34;101655.91;4897499;29;45296;-90
2022/08/09 07:00:36;;;;;;;;;9.00;9.00;;;;;22.31;53.94;101653.06;4914333;29;45226;-91
2022/08/09 07:03:02;;;;;;;;;8.33;8.33;;;;;22.29;53.82;101621.50;4896245;29;46797;-90
2022/08/09 07:05:37;;;;;;;;;9.67;9.00;;;;;22.45;52.90;101624.78;4896135;29;45454;-90
2022/08/09 07:08:03;;;;;;;;;14.00;10.33;;;;;22.46;52.48;101635.59;4912921;28;45741;-91
2022/08/09 07:10:33;;;;;;;;;9.33;8.67;;;;;22.39;52.60;101623.09;4897577;29;45430;-91
2022/08/09 07:13:09;;;;;;;;;8.33;8.33;;;;;22.57;52.81;101647.09;4897563;29;45361;-91
2022/08/09 07:15:36;;;;;;;;;9.00;9.00;;;;;22.62;52.58;101656.94;4897338;29;45374;-90
2022/08/09 07:18:04;;;;;;;;;9.67;8.33;;;;;22.57;52.61;101644.38;4915365;28;45359;-90
2022/08/09 07:20:39;;;;;;;;;11.00;10.00;;;;;22.67;52.25;101647.78;4914579;28;45319;-90
2022/08/09 13:37:07;;;;;;;;;;;;;;;;;;;;;
2022/08/09 13:40:04;;;;;;;;;8.00;8.00;;;;;29.00;29.42;101464.16;4863415;29;70474;-90
2022/08/09 13:46:37;;;;;;;;;;;;;;;;;;;;;
2022/08/09 14:12:30;;;;;;;;;7.00;7.00;;;;;37.34;20.03;101458.91;5191635;23;45757;-89
2022/08/09 14:18:28;;;;;;;;;9.33;8.00;;;;;39.73;19.40;101459.91;5092697;23;45343;-89
2022/08/09 14:21:18;;;;;;;;;;;;;;;;;;;;;
2022/08/09 14:27:33;;;;;;;;;8.00;7.00;;;;;42.74;15.76;101442.28;4846631;29;45373;-89
2022/08/09 14:30:20;;;;;;;;;8.00;8.00;;;;;43.10;16.19;101433.56;4874715;29;45442;-89
2022/08/09 14:34:13;;;;;;;;;;;;;;;;;;;;;
2022/08/09 15:07:45;;;;;;;;;7.00;7.00;;;;;47.62;12.60;101403.94;4839524;29;44978;-89
2022/08/09 15:25:49;;;;;;;;;8.33;8.33;;;;;50.75;10.79;101411.53;4930270;28;45577;-89
2022/08/09 15:28:27;;;;;;;;;7.00;7.00;;;;;51.63;10.18;101402.03;4933465;28;44732;-89
2022/08/09 15:31:03;;;;;;;;;7.67;7.67;;;;;52.01;10.63;101417.97;4949511;28;45377;-89
2022/08/09 15:33:38;;;;;;;;;8.00;6.67;;;;;52.17;9.13;101428.69;4932878;28;45100;-89
2022/08/09 15:36:17;;;;;;;;;7.00;7.00;;;;;51.68;8.22;101393.69;4936862;28;46710;-89
2022/08/09 15:39:02;;;;;;;;;7.67;7.67;;;;;51.68;7.74;101398.50;4934317;28;45413;-90
2022/08/09 15:41:29;;;;;;;;;7.00;7.00;;;;;52.26;9.88;101434.03;4932930;28;44820;-89
2022/08/09 15:43:58;;;;;;;;;7.67;7.33;;;;;52.33;8.31;101395.06;4933762;28;45467;-89
2022/08/09 15:46:23;;;;;;;;;9.00;7.00;;;;;52.55;8.37;101398.25;4932609;28;45781;-90
2022/08/09 15:48:58;;;;;;;;;8.00;6.67;;;;;52.84;8.35;101410.69;4934716;28;44993;-89
2022/08/09 15:51:24;;;;;;;;;7.33;7.33;;;;;52.94;8.34;101393.91;4933278;28;44681;-89
2022/08/09 15:53:52;;;;;;;;;7.33;7.33;;;;;51.56;8.82;101419.13;4930841;28;45668;-89
2022/08/09 15:56:30;;;;;;;;;;;;;;;;;;;;;
2022/08/09 15:59:54;;;;;;;;;7.00;7.00;;;;;44.55;12.36;101365.34;4932055;28;71950;-89
2022/08/09 16:01:58;;;;;;;;;9.00;8.00;;;;;41.78;13.93;101383.94;4923054;28;45763;-88
2022/08/09 16:04:25;;;;;;;;;7.00;7.00;;;;;39.90;14.85;101381.16;4932668;28;45339;-89
2022/08/09 16:06:54;;;;;;;;;6.67;6.67;;;;;38.43;16.63;101385.16;4948404;28;46845;-90
2022/08/09 16:09:19;;;;;;;;;7.33;7.33;;;;;37.30;17.56;101386.16;4946989;28;45334;-90
2022/08/09 16:11:45;;;;;;;;;6.00;6.00;;;;;36.42;17.77;101370.69;4931005;28;45545;-90
2022/08/09 16:14:14;;;;;;;;;7.00;7.00;;;;;35.55;18.20;101345.63;4933467;28;45406;-90
2022/08/09 16:16:39;;;;;;;;;7.00;7.00;;;;;34.93;19.27;101353.31;4947467;28;47112;-88
2022/08/09 16:19:06;;;;;;;;;7.00;7.00;;;;;34.56;20.16;101355.28;4945948;28;45271;-88
2022/08/09 16:21:32;;;;;;;;;5.00;5.00;;;;;34.16;20.18;101377.69;4946355;28;44850;-89
2022/08/09 16:23:58;;;;;;;;;6.33;6.33;;;;;33.56;20.44;101324.16;4945926;28;45386;-89
2022/08/09 16:26:31;;;;;;;;;7.33;7.33;;;;;33.34;20.94;101325.72;4945313;28;47118;-88
2022/08/09 16:29:00;;;;;;;;;6.33;6.33;;;;;33.16;21.60;101344.47;4929871;28;45271;-89
2022/08/09 16:31:26;;;;;;;;;10.00;9.00;;;;;33.06;22.01;101369.00;4947319;28;45433;-88
2022/08/09 16:33:58;;;;;;;;;8.00;8.00;;;;;32.71;21.81;101341.19;4948577;28;45498;-89
2022/08/09 16:37:07;;;;;;;;;8.00;6.33;;;;;32.41;22.49;101339.53;4945949;28;46944;-88
2022/08/09 16:43:08;;;;;;;;;8.33;8.33;;;;;31.87;23.61;101355.97;4914516;28;44991;-89
2022/08/09 16:54:21;;;;;;;;;;;;;;;;;;;;;
2022/08/09 16:56:47;;;;;;;;;6.00;6.00;;;;;31.37;25.11;101371.09;4825667;29;65845;-89
2022/08/09 16:59:13;;;;;;;;;6.67;6.67;;;;;31.09;24.38;101338.03;4802739;29;47905;-89
2022/08/09 17:01:38;;;;;;;;;8.00;8.00;;;;;31.09;24.20;101359.13;4818926;29;44913;-89
2022/08/09 17:04:05;;;;;;;;;7.67;7.33;;;;;31.12;25.07;101366.28;4830694;29;45386;-89
2022/08/09 17:06:30;;;;;;;;;7.67;7.67;;;;;31.00;24.68;101351.44;4821281;29;45604;-89
2022/08/09 17:08:59;;;;;;;;;5.33;5.33;;;;;31.00;24.96;101365.19;4836383;29;46817;-88
2022/08/09 17:11:44;;;;;;;;;7.00;7.00;;;;;30.84;25.25;101357.84;4820968;29;45360;-89
2022/08/09 17:14:10;;;;;;;;;6.33;6.33;;;;;30.84;25.09;101356.97;4835220;29;45477;-89
2022/08/09 17:16:36;;;;;;;;;6.33;6.33;;;;;30.81;25.16;101352.56;4836111;29;45328;-88
2022/08/09 17:19:13;;;;;;;;;5.33;5.33;;;;;30.59;25.25;101319.16;4836550;29;45939;-89
2022/08/09 17:21:48;;;;;;;;;8.00;7.00;;;;;30.80;24.88;101361.75;4837518;29;45767;-89
2022/08/09 17:24:14;;;;;;;;;6.00;5.00;;;;;30.51;25.07;101322.38;4853626;29;45396;-90
2022/08/09 17:27:03;;;;;;;;;6.00;6.00;;;;;30.52;25.12;101318.63;4859523;29;45300;-89
2022/08/09 17:29:32;;;;;;;;;9.33;9.33;;;;;30.49;25.34;101325.19;4859129;29;46966;-88
2022/08/09 17:32:00;;;;;;;;;8.67;8.67;;;;;30.53;25.39;101347.84;4857498;29;44831;-89
2022/08/09 17:34:26;;;;;;;;;7.33;7.33;;;;;30.64;25.46;101366.41;4929634;28;45433;-90
2022/08/09 17:36:52;;;;;;;;;6.33;6.33;;;;;30.48;25.74;101345.41;4916059;28;45538;-89
2022/08/09 17:39:19;;;;;;;;;7.33;6.67;;;;;30.27;25.67;101319.19;4931909;28;47168;-89
2022/08/09 17:41:45;;;;;;;;;7.00;6.00;;;;;30.31;25.69;101331.78;4916369;28;45296;-89
2022/08/09 17:44:11;;;;;;;;;3.67;3.67;;;;;30.48;25.80;101361.88;4915424;28;45363;-89
2022/08/09 17:46:37;;;;;;;;;7.33;7.33;;;;;30.37;25.85;101353.38;4932695;28;45773;-89
2022/08/09 17:49:05;;;;;;;;;6.67;5.67;;;;;30.36;25.68;101354.38;4914129;28;46637;-89
2022/08/09 17:52:17;;;;;;;;;9.00;7.67;;;;;30.18;25.68;101315.16;4913554;28;45427;-89
2022/08/09 17:54:43;;;;;;;;;5.00;5.00;;;;;30.25;25.79;101354.06;4912762;28;44737;-90
2022/08/09 17:57:08;;;;;;;;;6.33;5.67;;;;;30.33;26.12;101381.97;4911984;28;45401;-90
2022/08/09 17:59:35;;;;;;;;;5.00;5.00;;;;;30.20;26.07;101358.97;4912552;28;47996;-90
2022/08/09 18:02:00;;;;;;;;;6.00;6.00;;;;;30.21;26.08;101372.56;4895817;28;45463;-90
2022/08/09 18:04:26;;;;;;;;;7.33;7.33;;;;;29.98;26.49;101351.97;4894907;28;45912;-89
2022/08/09 18:06:52;;;;;;;;;5.00;5.00;;;;;30.05;26.46;101364.34;4897814;29;45434;-89
2022/08/09 18:09:17;;;;;;;;;8.00;6.67;;;;;30.02;26.52;101364.53;4898560;28;45197;-89
2022/08/09 18:11:47;;;;;;;;;6.67;6.67;;;;;29.98;26.51;101367.56;4899768;28;45409;-88
2022/08/09 18:14:13;;;;;;;;;7.00;7.00;;;;;29.95;26.59;101374.06;4915094;28;45475;-89
2022/08/09 18:16:39;;;;;;;;;6.33;6.33;;;;;30.00;26.31;101388.44;4915005;28;45328;-89
2022/08/09 18:19:08;;;;;;;;;5.67;5.33;;;;;29.81;26.66;101355.66;4917185;28;45518;-89
2022/08/09 18:21:33;;;;;;;;;5.00;5.00;;;;;29.69;26.94;101357.25;4893758;28;45285;-89
2022/08/09 18:23:59;;;;;;;;;5.00;5.00;;;;;29.87;26.81;101387.34;4898900;28;45454;-89
2022/08/09 18:26:24;;;;;;;;;6.33;6.33;;;;;29.76;27.08;101367.91;4914704;28;44847;-89
2022/08/09 18:28:50;;;;;;;;;8.00;8.00;;;;;29.79;26.75;101389.63;4897512;28;47140;-89
2022/08/09 18:31:15;;;;;;;;;6.67;6.67;;;;;29.52;26.89;101346.31;4913555;28;45225;-89
2022/08/09 18:33:41;;;;;;;;;6.00;6.00;;;;;29.48;27.22;101362.03;4899379;28;45395;-88
2022/08/09 18:36:08;;;;;;;;;9.67;7.00;;;;;29.35;27.14;101338.16;4899644;28;45216;-89
2022/08/09 18:38:34;;;;;;;;;8.00;7.00;;;;;29.41;27.34;101356.97;4899935;28;46963;-90
2022/08/09 18:41:00;;;;;;;;;6.67;6.67;;;;;29.56;27.58;101405.47;4915244;28;45428;-89
2022/08/09 18:43:25;;;;;;;;;6.00;6.00;;;;;29.30;27.42;101361.22;4894115;28;45798;-89
2022/08/09 18:45:51;;;;;;;;;7.00;7.00;;;;;29.50;27.76;101401.22;4894698;28;45630;-89
2022/08/09 18:48:17;;;;;;;;;6.00;5.33;;;;;29.36;27.84;101381.03;4896014;28;46792;-88
2022/08/09 18:50:43;;;;;;;;;7.67;7.00;;;;;29.39;27.97;101400.03;4879164;28;44707;-89
2022/08/09 18:53:08;;;;;;;;;6.33;6.00;;;;;29.27;27.75;101386.03;4892635;28;45330;-89
2022/08/09 18:55:34;;;;;;;;;7.00;7.00;;;;;29.21;27.77;101391.84;4916243;28;44831;-89
2022/08/09 18:57:59;;;;;;;;;7.67;7.67;;;;;29.08;28.76;101371.53;4899937;28;45517;-90
2022/08/09 19:00:25;;;;;;;;;6.67;5.33;;;;;28.97;29.08;101363.03;4900097;29;45267;-89
2022/08/09 19:06:13;;;;;;;;;8.33;8.00;;;;;29.06;28.65;101395.38;4915317;29;45402;-90
2022/08/09 19:08:39;;;;;;;;;8.00;8.00;;;;;28.94;29.20;101388.69;4913457;29;45530;-89
2022/08/09 19:11:05;;;;;;;;;6.67;6.67;;;;;28.93;29.11;101398.75;4896924;28;45367;-89
2022/08/09 19:13:30;;;;;;;;;13.00;10.00;;;;;28.87;29.56;101401.81;4898449;28;45436;-90
2022/08/09 19:15:56;;;;;;;;;10.00;10.00;;;;;28.69;29.30;101379.03;4914975;28;45043;-90
2022/08/09 19:18:22;;;;;;;;;7.67;7.00;;;;;28.65;30.92;101391.09;4899452;28;45503;-89
2022/08/09 19:20:58;;;;;;;;;9.67;9.67;;;;;28.70;30.27;101407.28;4915261;28;45581;-89
2022/08/09 19:23:29;;;;;;;;;8.00;8.00;;;;;28.43;29.94;101379.44;4899007;28;45484;-90
2022/08/09 19:25:55;;;;;;;;;9.67;9.67;;;;;28.58;30.24;101417.03;4898593;28;45670;-89
2022/08/09 19:28:24;;;;;;;;;10.00;10.00;;;;;28.44;31.19;101414.03;4915560;28;46744;-88
2022/08/09 19:30:50;;;;;;;;;10.33;8.67;;;;;28.33;31.01;101398.16;4899996;28;44784;-89
2022/08/09 19:33:22;;;;;;;;;11.33;9.67;;;;;28.24;30.89;101398.66;4916456;28;44819;-89